< < Back
Terminal Aerodrome Forecast


Current Version              Previous Versions:   1  2  3  4  5  6  7  8  9  

Terminal Aerodrome Forecast

369
FTUS42 KTAE 252320
TAFDHN
TAF
KDHN 252320Z 2600/2624 07004KT P6SM BKN250=



Latest METAR

302
SAUS70 KWBC 261700
MTRDHN
METAR KDHN 261653Z VRB03KT 10SM SCT029 31/22 A3007 RMK AO2 SLP177
T03060217


USA.gov is the U.S. government's official web portal to all federal, state and local government web resources and services.